ASL45T LYBE-LOWW
Flight info
| Callsign | ASL45T |
|---|---|
| Flight time | 0h 51m |
| Altitude | 34000 |
| Route | TISAK M173 PARAK DCT BALUX DCT TORNO DCT NATEX NATEX2W |
| Aircraft | A320/M-SDE3FGHIRWY/LB1 |
Departure
| Time | 2026-04-24 13:26 |
|---|---|
| Airport | Belgrade Nikola Tesla Airport (LYBE) |
Arrival
| Time | 2026-04-24 14:18 |
|---|---|
| Airport | Vienna International Airport (LOWW) |
| Time | Latitude | Longitude | Altitude | Speed | Heading |
|---|---|---|---|---|---|
| 2026-04-24 13:09 | 44.82059 | 20.29366 | 307 ft | 0 kts | 302° |
| 2026-04-24 13:16 | 44.82057 | 20.29370 | 307 ft | 3 kts | 302° |
| 2026-04-24 13:17 | 44.82046 | 20.29395 | 306 ft | 4 kts | 302° |
| 2026-04-24 13:17 | 44.82031 | 20.29425 | 305 ft | 4 kts | 316° |
| 2026-04-24 13:17 | 44.82011 | 20.29443 | 306 ft | 4 kts | 5° |
| 2026-04-24 13:17 | 44.81993 | 20.29434 | 306 ft | 1 kts | 32° |
| 2026-04-24 13:20 | 44.81994 | 20.29434 | 306 ft | 1 kts | 32° |
| 2026-04-24 13:20 | 44.82025 | 20.29462 | 306 ft | 9 kts | 32° |
| 2026-04-24 13:20 | 44.82089 | 20.29518 | 308 ft | 13 kts | 32° |
| 2026-04-24 13:21 | 44.82090 | 20.29519 | 308 ft | 13 kts | 32° |
| 2026-04-24 13:21 | 44.82102 | 20.29529 | 310 ft | 13 kts | 32° |
| 2026-04-24 13:21 | 44.82188 | 20.29611 | 309 ft | 17 kts | 46° |
| 2026-04-24 13:21 | 44.82165 | 20.29744 | 307 ft | 17 kts | 131° |
| 2026-04-24 13:22 | 44.82089 | 20.29905 | 307 ft | 22 kts | 120° |
| 2026-04-24 13:22 | 44.82000 | 20.30111 | 306 ft | 27 kts | 123° |
| 2026-04-24 13:22 | 44.81899 | 20.30338 | 306 ft | 28 kts | 121° |
| 2026-04-24 13:22 | 44.81801 | 20.30557 | 307 ft | 26 kts | 122° |
| 2026-04-24 13:23 | 44.81701 | 20.30779 | 307 ft | 28 kts | 122° |
| 2026-04-24 13:23 | 44.81592 | 20.31022 | 304 ft | 31 kts | 122° |
| 2026-04-24 13:23 | 44.81474 | 20.31283 | 304 ft | 33 kts | 122° |
| 2026-04-24 13:23 | 44.81363 | 20.31534 | 306 ft | 29 kts | 121° |
| 2026-04-24 13:24 | 44.81256 | 20.31780 | 307 ft | 30 kts | 122° |
| 2026-04-24 13:24 | 44.81181 | 20.31948 | 308 ft | 29 kts | 122° |
| 2026-04-24 13:24 | 44.81084 | 20.32167 | 304 ft | 21 kts | 122° |
| 2026-04-24 13:24 | 44.81079 | 20.32294 | 305 ft | 12 kts | 25° |
| 2026-04-24 13:25 | 44.81166 | 20.32307 | 306 ft | 13 kts | 360° |
| 2026-04-24 13:25 | 44.81245 | 20.32259 | 308 ft | 12 kts | 302° |
| 2026-04-24 13:25 | 44.81248 | 20.32252 | 308 ft | 1 kts | 302° |
| 2026-04-24 13:25 | 44.81309 | 20.32116 | 309 ft | 46 kts | 302° |
| 2026-04-24 13:26 | 44.81596 | 20.31466 | 307 ft | 107 kts | 302° |
| 2026-04-24 13:26 | 44.82076 | 20.30390 | 307 ft | 151 kts | 302° |
| 2026-04-24 13:26 | 44.82652 | 20.29067 | 780 ft | 156 kts | 301° |
| 2026-04-24 13:26 | 44.83207 | 20.27774 | 1553 ft | 153 kts | 301° |
| 2026-04-24 13:27 | 44.83760 | 20.26500 | 2226 ft | 152 kts | 301° |
| 2026-04-24 13:27 | 44.84328 | 20.25193 | 2693 ft | 165 kts | 302° |
| 2026-04-24 13:27 | 44.84971 | 20.23739 | 3056 ft | 185 kts | 302° |
| 2026-04-24 13:27 | 44.85700 | 20.22113 | 3324 ft | 207 kts | 302° |
| 2026-04-24 13:28 | 44.86699 | 20.20498 | 3640 ft | 233 kts | 325° |
| 2026-04-24 13:28 | 44.88304 | 20.19817 | 4227 ft | 253 kts | 355° |
| 2026-04-24 13:28 | 44.90080 | 20.19752 | 5117 ft | 257 kts | 355° |
| 2026-04-24 13:28 | 44.91871 | 20.19621 | 6082 ft | 258 kts | 355° |
| 2026-04-24 13:29 | 44.93670 | 20.19460 | 6986 ft | 260 kts | 355° |
| 2026-04-24 13:29 | 44.95482 | 20.19292 | 7806 ft | 263 kts | 355° |
| 2026-04-24 13:29 | 44.97322 | 20.19123 | 8616 ft | 267 kts | 355° |
| 2026-04-24 13:29 | 44.99199 | 20.18957 | 9417 ft | 272 kts | 355° |
| 2026-04-24 13:30 | 45.01080 | 20.18796 | 10164 ft | 277 kts | 355° |
| 2026-04-24 13:30 | 45.03070 | 20.18632 | 10497 ft | 298 kts | 355° |
| 2026-04-24 13:30 | 45.05214 | 20.18460 | 10728 ft | 318 kts | 355° |
| 2026-04-24 13:30 | 45.07454 | 20.18282 | 11304 ft | 325 kts | 356° |
| 2026-04-24 13:31 | 45.09728 | 20.18106 | 11997 ft | 329 kts | 356° |
| 2026-04-24 13:31 | 45.12027 | 20.17927 | 12700 ft | 332 kts | 356° |
| 2026-04-24 13:31 | 45.14338 | 20.17743 | 13410 ft | 334 kts | 356° |
| 2026-04-24 13:31 | 45.16669 | 20.17557 | 14081 ft | 336 kts | 356° |
| 2026-04-24 13:32 | 45.19017 | 20.17370 | 14681 ft | 339 kts | 356° |
| 2026-04-24 13:32 | 45.21388 | 20.17181 | 15264 ft | 342 kts | 356° |
| 2026-04-24 13:32 | 45.23777 | 20.16992 | 15849 ft | 345 kts | 357° |
| 2026-04-24 13:32 | 45.26186 | 20.16801 | 16443 ft | 348 kts | 357° |
| 2026-04-24 13:33 | 45.28616 | 20.16604 | 17005 ft | 351 kts | 357° |
| 2026-04-24 13:33 | 45.31067 | 20.16403 | 17585 ft | 354 kts | 358° |
| 2026-04-24 13:33 | 45.33544 | 20.16201 | 18167 ft | 357 kts | 358° |
| 2026-04-24 13:33 | 45.36037 | 20.16002 | 18699 ft | 360 kts | 358° |
| 2026-04-24 13:34 | 45.38546 | 20.15800 | 19233 ft | 363 kts | 358° |
| 2026-04-24 13:34 | 45.41048 | 20.15596 | 19738 ft | 366 kts | 358° |
| 2026-04-24 13:34 | 45.43597 | 20.15388 | 20265 ft | 368 kts | 358° |
| 2026-04-24 13:34 | 45.46162 | 20.15179 | 20769 ft | 371 kts | 358° |
| 2026-04-24 13:35 | 45.48749 | 20.14968 | 21269 ft | 373 kts | 358° |
| 2026-04-24 13:35 | 45.51350 | 20.14754 | 21763 ft | 375 kts | 358° |
| 2026-04-24 13:35 | 45.53967 | 20.14540 | 22243 ft | 378 kts | 358° |
| 2026-04-24 13:35 | 45.56601 | 20.14326 | 22715 ft | 380 kts | 358° |
| 2026-04-24 13:36 | 45.59246 | 20.14114 | 23188 ft | 382 kts | 358° |
| 2026-04-24 13:36 | 45.61909 | 20.13904 | 23658 ft | 384 kts | 358° |
| 2026-04-24 13:36 | 45.64590 | 20.13689 | 24065 ft | 386 kts | 358° |
| 2026-04-24 13:36 | 45.67277 | 20.13471 | 24465 ft | 388 kts | 358° |
| 2026-04-24 13:37 | 45.69984 | 20.13249 | 24867 ft | 390 kts | 358° |
| 2026-04-24 13:37 | 45.72664 | 20.13027 | 25259 ft | 391 kts | 358° |
| 2026-04-24 13:37 | 45.75395 | 20.12801 | 25650 ft | 393 kts | 358° |
| 2026-04-24 13:37 | 45.78134 | 20.12576 | 26035 ft | 395 kts | 358° |
| 2026-04-24 13:38 | 45.80893 | 20.12349 | 26426 ft | 396 kts | 358° |
| 2026-04-24 13:38 | 45.83654 | 20.12123 | 26829 ft | 398 kts | 358° |
| 2026-04-24 13:38 | 45.86423 | 20.11895 | 27213 ft | 399 kts | 358° |
| 2026-04-24 13:38 | 45.89210 | 20.11665 | 27589 ft | 401 kts | 358° |
| 2026-04-24 13:39 | 45.92006 | 20.11434 | 27927 ft | 404 kts | 358° |
| 2026-04-24 13:39 | 45.94820 | 20.11202 | 28277 ft | 406 kts | 358° |
| 2026-04-24 13:39 | 45.97615 | 20.10968 | 28637 ft | 408 kts | 358° |
| 2026-04-24 13:39 | 46.00458 | 20.10729 | 29003 ft | 410 kts | 358° |
| 2026-04-24 13:40 | 46.03321 | 20.10490 | 29387 ft | 412 kts | 358° |
| 2026-04-24 13:40 | 46.06183 | 20.10255 | 29752 ft | 413 kts | 358° |
| 2026-04-24 13:40 | 46.09060 | 20.10019 | 30132 ft | 414 kts | 358° |
| 2026-04-24 13:40 | 46.11931 | 20.09781 | 30573 ft | 412 kts | 358° |
| 2026-04-24 13:41 | 46.14785 | 20.09339 | 31008 ft | 413 kts | 351° |
| 2026-04-24 13:41 | 46.17552 | 20.08213 | 31436 ft | 415 kts | 342° |
| 2026-04-24 13:41 | 46.20171 | 20.06401 | 31855 ft | 418 kts | 334° |
| 2026-04-24 13:41 | 46.22713 | 20.04350 | 32274 ft | 417 kts | 335° |
| 2026-04-24 13:42 | 46.25239 | 20.02318 | 32742 ft | 415 kts | 335° |
| 2026-04-24 13:42 | 46.27761 | 20.00294 | 33203 ft | 413 kts | 335° |
| 2026-04-24 13:42 | 46.30239 | 19.98309 | 33644 ft | 412 kts | 335° |
| 2026-04-24 13:42 | 46.32746 | 19.96302 | 33966 ft | 412 kts | 335° |
| 2026-04-24 13:43 | 46.37772 | 19.92265 | 34027 ft | 414 kts | 335° |
| 2026-04-24 13:43 | 46.42815 | 19.88190 | 34026 ft | 415 kts | 335° |
| 2026-04-24 13:44 | 46.47846 | 19.84100 | 34025 ft | 415 kts | 335° |
| 2026-04-24 13:44 | 46.52879 | 19.80020 | 34022 ft | 413 kts | 335° |
| 2026-04-24 13:45 | 46.57901 | 19.75955 | 33998 ft | 413 kts | 335° |
| 2026-04-24 13:45 | 46.62926 | 19.71866 | 33996 ft | 414 kts | 335° |
| 2026-04-24 13:46 | 46.67958 | 19.67761 | 34005 ft | 414 kts | 335° |
| 2026-04-24 13:46 | 46.72989 | 19.63650 | 34014 ft | 415 kts | 334° |
| 2026-04-24 13:47 | 46.78018 | 19.59525 | 34021 ft | 414 kts | 334° |
| 2026-04-24 13:47 | 46.83013 | 19.55419 | 34028 ft | 414 kts | 334° |
| 2026-04-24 13:48 | 46.88028 | 19.51282 | 34008 ft | 414 kts | 334° |
| 2026-04-24 13:48 | 46.93046 | 19.47140 | 34005 ft | 414 kts | 334° |
| 2026-04-24 13:49 | 46.98075 | 19.42994 | 34016 ft | 415 kts | 334° |
| 2026-04-24 13:49 | 47.03097 | 19.38835 | 34021 ft | 414 kts | 334° |
| 2026-04-24 13:50 | 47.08121 | 19.34656 | 34023 ft | 414 kts | 334° |
| 2026-04-24 13:50 | 47.13134 | 19.30480 | 34018 ft | 414 kts | 334° |
| 2026-04-24 13:51 | 47.18122 | 19.26319 | 34007 ft | 414 kts | 334° |
| 2026-04-24 13:51 | 47.23136 | 19.22128 | 34005 ft | 414 kts | 334° |
| 2026-04-24 13:52 | 47.28155 | 19.17924 | 34004 ft | 415 kts | 334° |
| 2026-04-24 13:52 | 47.32901 | 19.13052 | 34011 ft | 421 kts | 319° |
| 2026-04-24 13:53 | 47.36303 | 19.05913 | 34012 ft | 433 kts | 299° |
| 2026-04-24 13:53 | 47.38822 | 18.97842 | 33996 ft | 433 kts | 299° |
| 2026-04-24 13:54 | 47.41246 | 18.89658 | 32885 ft | 443 kts | 296° |
| 2026-04-24 13:54 | 47.42347 | 18.85338 | 31872 ft | 452 kts | 294° |
| 2026-04-24 13:54 | 47.43373 | 18.81011 | 31152 ft | 453 kts | 293° |
| 2026-04-24 13:55 | 47.44387 | 18.76611 | 30563 ft | 450 kts | 292° |
| 2026-04-24 13:55 | 47.45397 | 18.72246 | 29965 ft | 447 kts | 293° |
| 2026-04-24 13:55 | 47.46419 | 18.67937 | 29309 ft | 443 kts | 293° |
| 2026-04-24 13:55 | 47.47452 | 18.63678 | 28696 ft | 438 kts | 293° |
| 2026-04-24 13:56 | 47.48493 | 18.59448 | 28093 ft | 434 kts | 293° |
| 2026-04-24 13:56 | 47.49527 | 18.55269 | 27506 ft | 429 kts | 294° |
| 2026-04-24 13:56 | 47.50549 | 18.51144 | 26925 ft | 425 kts | 294° |
| 2026-04-24 13:56 | 47.51559 | 18.47043 | 26351 ft | 422 kts | 293° |
| 2026-04-24 13:57 | 47.52552 | 18.42982 | 25804 ft | 418 kts | 293° |
| 2026-04-24 13:57 | 47.53532 | 18.38949 | 25258 ft | 414 kts | 293° |
| 2026-04-24 13:57 | 47.54497 | 18.34956 | 24717 ft | 411 kts | 293° |
| 2026-04-24 13:57 | 47.55441 | 18.31044 | 24204 ft | 407 kts | 293° |
| 2026-04-24 13:58 | 47.56389 | 18.27101 | 23684 ft | 404 kts | 292° |
| 2026-04-24 13:58 | 47.57319 | 18.23226 | 22774 ft | 397 kts | 292° |
| 2026-04-24 13:58 | 47.58241 | 18.19399 | 21785 ft | 391 kts | 292° |
| 2026-04-24 13:58 | 47.59153 | 18.15615 | 20958 ft | 390 kts | 292° |
| 2026-04-24 13:59 | 47.60058 | 18.11858 | 20577 ft | 384 kts | 292° |
| 2026-04-24 13:59 | 47.60952 | 18.08142 | 20040 ft | 382 kts | 292° |
| 2026-04-24 13:59 | 47.61843 | 18.04438 | 19458 ft | 381 kts | 292° |
| 2026-04-24 13:59 | 47.62725 | 18.00757 | 19008 ft | 377 kts | 292° |
| 2026-04-24 14:00 | 47.63598 | 17.97098 | 18562 ft | 373 kts | 292° |
| 2026-04-24 14:00 | 47.64460 | 17.93473 | 18034 ft | 371 kts | 292° |
| 2026-04-24 14:00 | 47.65310 | 17.89894 | 17469 ft | 368 kts | 292° |
| 2026-04-24 14:00 | 47.66154 | 17.86334 | 16973 ft | 363 kts | 292° |
| 2026-04-24 14:01 | 47.66975 | 17.82865 | 16502 ft | 359 kts | 292° |
| 2026-04-24 14:01 | 47.67796 | 17.79386 | 16057 ft | 355 kts | 292° |
| 2026-04-24 14:01 | 47.68604 | 17.75952 | 15574 ft | 351 kts | 292° |
| 2026-04-24 14:01 | 47.69404 | 17.72552 | 15131 ft | 347 kts | 292° |
| 2026-04-24 14:02 | 47.70199 | 17.69182 | 14673 ft | 344 kts | 292° |
| 2026-04-24 14:02 | 47.70986 | 17.65844 | 14223 ft | 341 kts | 292° |
| 2026-04-24 14:02 | 47.71761 | 17.62542 | 13764 ft | 337 kts | 292° |
| 2026-04-24 14:02 | 47.72528 | 17.59270 | 13288 ft | 334 kts | 292° |
| 2026-04-24 14:03 | 47.73285 | 17.56034 | 12843 ft | 329 kts | 292° |
| 2026-04-24 14:03 | 47.74029 | 17.52840 | 12416 ft | 326 kts | 291° |
| 2026-04-24 14:03 | 47.74491 | 17.49554 | 12055 ft | 324 kts | 277° |
| 2026-04-24 14:03 | 47.74435 | 17.46218 | 11659 ft | 324 kts | 267° |
| 2026-04-24 14:04 | 47.74189 | 17.42874 | 11000 ft | 328 kts | 267° |
| 2026-04-24 14:04 | 47.73946 | 17.39498 | 10429 ft | 329 kts | 268° |
| 2026-04-24 14:04 | 47.73709 | 17.36163 | 10225 ft | 319 kts | 268° |
| 2026-04-24 14:04 | 47.73480 | 17.32950 | 10102 ft | 307 kts | 268° |
| 2026-04-24 14:05 | 47.73287 | 17.29850 | 9981 ft | 294 kts | 274° |
| 2026-04-24 14:05 | 47.73438 | 17.26901 | 9851 ft | 281 kts | 279° |
| 2026-04-24 14:05 | 47.73618 | 17.24080 | 9718 ft | 275 kts | 279° |
| 2026-04-24 14:05 | 47.73795 | 17.21260 | 9578 ft | 273 kts | 279° |
| 2026-04-24 14:06 | 47.73970 | 17.18453 | 9454 ft | 272 kts | 279° |
| 2026-04-24 14:06 | 47.74142 | 17.15659 | 9310 ft | 270 kts | 279° |
| 2026-04-24 14:06 | 47.74315 | 17.12881 | 9188 ft | 270 kts | 279° |
| 2026-04-24 14:06 | 47.74490 | 17.10094 | 8924 ft | 270 kts | 279° |
| 2026-04-24 14:07 | 47.74605 | 17.08255 | 8693 ft | 269 kts | 279° |
| 2026-04-24 14:07 | 47.74777 | 17.05483 | 8320 ft | 269 kts | 278° |
| 2026-04-24 14:07 | 47.74949 | 17.02715 | 7958 ft | 269 kts | 278° |
| 2026-04-24 14:07 | 47.75118 | 16.99965 | 7636 ft | 267 kts | 278° |
| 2026-04-24 14:08 | 47.75285 | 16.97220 | 7299 ft | 265 kts | 277° |
| 2026-04-24 14:08 | 47.75448 | 16.94492 | 7005 ft | 262 kts | 278° |
| 2026-04-24 14:08 | 47.75609 | 16.91821 | 6604 ft | 258 kts | 277° |
| 2026-04-24 14:08 | 47.75768 | 16.89195 | 6164 ft | 254 kts | 277° |
| 2026-04-24 14:09 | 47.75924 | 16.86577 | 5800 ft | 255 kts | 277° |
| 2026-04-24 14:09 | 47.76081 | 16.83944 | 5442 ft | 256 kts | 277° |
| 2026-04-24 14:09 | 47.76237 | 16.81321 | 5139 ft | 254 kts | 277° |
| 2026-04-24 14:09 | 47.76392 | 16.78724 | 4787 ft | 256 kts | 277° |
| 2026-04-24 14:10 | 47.76698 | 16.76139 | 4437 ft | 254 kts | 291° |
| 2026-04-24 14:10 | 47.77538 | 16.73846 | 4104 ft | 252 kts | 309° |
| 2026-04-24 14:10 | 47.78816 | 16.72128 | 3991 ft | 247 kts | 327° |
| 2026-04-24 14:10 | 47.80384 | 16.71087 | 3989 ft | 250 kts | 341° |
| 2026-04-24 14:11 | 47.82056 | 16.70391 | 3984 ft | 249 kts | 342° |
| 2026-04-24 14:11 | 47.83691 | 16.69712 | 3985 ft | 238 kts | 341° |
| 2026-04-24 14:11 | 47.86725 | 16.68444 | 3981 ft | 215 kts | 341° |
| 2026-04-24 14:12 | 47.88120 | 16.67860 | 3982 ft | 201 kts | 341° |
| 2026-04-24 14:12 | 47.89439 | 16.67307 | 3987 ft | 193 kts | 341° |
| 2026-04-24 14:12 | 47.90690 | 16.66783 | 3979 ft | 181 kts | 341° |
| 2026-04-24 14:12 | 47.91890 | 16.66279 | 3924 ft | 177 kts | 340° |
| 2026-04-24 14:13 | 47.93058 | 16.65789 | 3784 ft | 169 kts | 340° |
| 2026-04-24 14:13 | 47.94135 | 16.65338 | 3559 ft | 158 kts | 339° |
| 2026-04-24 14:13 | 47.95165 | 16.64906 | 3357 ft | 150 kts | 340° |
| 2026-04-24 14:13 | 47.96145 | 16.64494 | 3184 ft | 141 kts | 341° |
| 2026-04-24 14:14 | 47.97082 | 16.64099 | 2984 ft | 138 kts | 341° |
| 2026-04-24 14:14 | 47.97999 | 16.63713 | 2794 ft | 136 kts | 341° |
| 2026-04-24 14:14 | 47.99830 | 16.62942 | 2431 ft | 136 kts | 341° |
| 2026-04-24 14:15 | 48.00739 | 16.62560 | 2254 ft | 137 kts | 341° |
| 2026-04-24 14:15 | 48.01650 | 16.62176 | 2082 ft | 136 kts | 340° |
| 2026-04-24 14:15 | 48.02560 | 16.61793 | 1884 ft | 138 kts | 341° |
| 2026-04-24 14:15 | 48.03486 | 16.61403 | 1702 ft | 137 kts | 340° |
| 2026-04-24 14:16 | 48.04402 | 16.61017 | 1522 ft | 136 kts | 340° |
| 2026-04-24 14:16 | 48.05307 | 16.60639 | 1322 ft | 137 kts | 340° |
| 2026-04-24 14:16 | 48.06218 | 16.60259 | 1139 ft | 133 kts | 339° |
| 2026-04-24 14:17 | 48.08008 | 16.59493 | 807 ft | 135 kts | 337° |
| 2026-04-24 14:17 | 48.08916 | 16.59118 | 646 ft | 135 kts | 337° |
| 2026-04-24 14:17 | 48.10179 | 16.58577 | 614 ft | 55 kts | 344° |
| 2026-04-24 14:18 | 48.10528 | 16.58428 | 614 ft | 49 kts | 342° |
| 2026-04-24 14:18 | 48.10743 | 16.58250 | 613 ft | 22 kts | 317° |
| 2026-04-24 14:18 | 48.10852 | 16.58095 | 619 ft | 22 kts | 314° |
| 2026-04-24 14:18 | 48.10962 | 16.57925 | 611 ft | 23 kts | 314° |
| 2026-04-24 14:19 | 48.11088 | 16.57772 | 617 ft | 24 kts | 343° |
| 2026-04-24 14:19 | 48.11256 | 16.57705 | 616 ft | 26 kts | 345° |
| 2026-04-24 14:19 | 48.11435 | 16.57628 | 618 ft | 27 kts | 343° |
| 2026-04-24 14:19 | 48.11542 | 16.57527 | 618 ft | 17 kts | 272° |
| 2026-04-24 14:20 | 48.11463 | 16.57438 | 609 ft | 16 kts | 206° |
| 2026-04-24 14:20 | 48.11449 | 16.57297 | 619 ft | 16 kts | 305° |
| 2026-04-24 14:20 | 48.11505 | 16.57143 | 619 ft | 18 kts | 295° |
| 2026-04-24 14:20 | 48.11562 | 16.56969 | 620 ft | 20 kts | 296° |
| 2026-04-24 14:21 | 48.11589 | 16.56826 | 609 ft | 7 kts | 214° |
| 2026-04-24 14:21 | 48.11544 | 16.56794 | 609 ft | 6 kts | 205° |
| 2026-04-24 14:21 | 48.11536 | 16.56788 | 622 ft | 0 kts | 206° |